Time;durP1;ratioP1;P1;durP2;ratioP2;P2;SDS_P1;SDS_P2;PMS_P1;PMS_P2;Temp;Humidity;BMP_temperature;BMP_pressure;BME280_temperature;BME280_humidity;BME280_pressure;Samples;Min_cycle;Max_cycle;Signal;HPM_P1;HPM_P2
2022/02/21 00:01:37;;;;;;;;;;;23.00;42.20;;;;;;1626100;73;773;-68
2022/02/21 00:03:39;;;;;;;;;;;22.90;42.20;;;;;;1625478;73;1074;-68
2022/02/21 00:05:41;;;;;;;;;;;22.90;42.20;;;;;;1606439;71;732;-68
2022/02/21 00:07:43;;;;;;;;;;;22.90;42.30;;;;;;1609285;73;731;-68
2022/02/21 00:09:45;;;;;;;;;;;23.00;42.30;;;;;;1624334;73;1963;-69
2022/02/21 00:11:47;;;;;;;;;;;22.90;42.20;;;;;;1597030;73;1170;-68
2022/02/21 00:13:49;;;;;;;;;;;23.00;42.30;;;;;;1602199;71;746;-68
2022/02/21 00:15:51;;;;;;;;;;;23.00;42.30;;;;;;1610167;73;808;-68
2022/02/21 00:17:53;;;;;;;;;;;22.90;42.20;;;;;;1615920;73;760;-68
2022/02/21 00:19:55;;;;;;;;;;;22.90;42.20;;;;;;1617407;71;733;-68
2022/02/21 00:21:56;;;;;;;;;;;23.00;42.30;;;;;;1615756;73;1141;-68
2022/02/21 00:23:58;;;;;;;;;;;22.90;42.20;;;;;;1626474;73;750;-68
2022/02/21 00:26:00;;;;;;;;;;;22.90;42.30;;;;;;1626183;73;739;-68
2022/02/21 00:28:02;;;;;;;;;;;22.90;42.30;;;;;;1626891;73;742;-68
2022/02/21 00:30:04;;;;;;;;;;;22.90;42.30;;;;;;1626108;71;1932;-69
2022/02/21 00:32:07;;;;;;;;;;;23.00;42.30;;;;;;1606528;71;1146;-68
2022/02/21 00:34:09;;;;;;;;;;;22.90;42.30;;;;;;1611715;73;737;-68
2022/02/21 00:36:10;;;;;;;;;;;23.00;42.30;;;;;;1621199;73;726;-69
2022/02/21 00:38:12;;;;;;;;;;;22.90;42.30;;;;;;1610195;71;740;-70
2022/02/21 00:40:14;;;;;;;;;;;22.90;42.30;;;;;;1619961;73;844;-68
2022/02/21 00:42:21;;;;;;;;;;;23.00;42.30;;;;;;1617328;73;1162;-68
2022/02/21 00:44:20;;;;;;;;;;;22.90;42.30;;;;;;1619547;73;1670;-68
2022/02/21 00:46:21;;;;;;;;;;;22.90;42.30;;;;;;1619535;71;815;-68
2022/02/21 00:48:23;;;;;;;;;;;22.90;42.30;;;;;;1611616;71;765;-68
2022/02/21 00:50:25;;;;;;;;;;;22.90;42.30;;;;;;1619437;73;1940;-70
2022/02/21 00:52:27;;;;;;;;;;;23.00;42.40;;;;;;1625427;73;1260;-68
2022/02/21 00:54:29;;;;;;;;;;;22.90;42.40;;;;;;1604677;71;791;-68
2022/02/21 00:56:31;;;;;;;;;;;22.90;42.40;;;;;;1621559;73;714;-68
2022/02/21 00:58:33;;;;;;;;;;;22.80;42.30;;;;;;1624344;71;790;-68
2022/02/21 01:00:36;;;;;;;;;;;22.90;42.40;;;;;;1625253;71;732;-68
2022/02/21 01:02:38;;;;;;;;;;;22.80;42.30;;;;;;1612834;71;1979;-69
2022/02/21 01:04:40;;;;;;;;;;;22.90;42.40;;;;;;1604179;73;805;-69
2022/02/21 01:06:42;;;;;;;;;;;22.90;42.40;;;;;;1615519;73;762;-68
2022/02/21 01:08:44;;;;;;;;;;;23.00;42.40;;;;;;1622015;73;1933;-68
2022/02/21 01:10:46;;;;;;;;;;;22.80;42.30;;;;;;1623740;73;777;-68
2022/02/21 01:12:48;;;;;;;;;;;22.90;42.40;;;;;;1624445;73;1138;-69
2022/02/21 01:14:51;;;;;;;;;;;22.90;42.40;;;;;;1621916;73;770;-68
2022/02/21 01:16:53;;;;;;;;;;;22.90;42.40;;;;;;1626267;73;832;-69
2022/02/21 01:18:55;;;;;;;;;;;22.80;42.30;;;;;;1623872;73;791;-69
2022/02/21 01:20:57;;;;;;;;;;;22.90;42.40;;;;;;1626032;72;751;-68
2022/02/21 01:22:59;;;;;;;;;;;22.80;42.30;;;;;;1626288;72;1127;-68
2022/02/21 01:25:00;;;;;;;;;;;22.80;42.30;;;;;;1626377;72;724;-67
2022/02/21 01:27:02;;;;;;;;;;;22.80;42.20;;;;;;1626100;72;745;-68
2022/02/21 01:29:04;;;;;;;;;;;22.90;42.40;;;;;;1626043;73;1921;-67
2022/02/21 01:31:06;;;;;;;;;;;22.80;42.30;;;;;;1625797;73;755;-67
2022/02/21 01:33:08;;;;;;;;;;;22.90;42.50;;;;;;1617822;73;1143;-67
2022/02/21 01:35:10;;;;;;;;;;;22.80;42.30;;;;;;1621727;73;735;-68
2022/02/21 01:37:12;;;;;;;;;;;22.90;42.40;;;;;;1620715;72;746;-69
2022/02/21 01:39:14;;;;;;;;;;;22.80;42.30;;;;;;1628386;71;752;-67
2022/02/21 01:41:16;;;;;;;;;;;22.80;42.30;;;;;;1622833;71;786;-68
2022/02/21 01:43:18;;;;;;;;;;;22.80;42.30;;;;;;1625150;73;1163;-70
2022/02/21 01:45:20;;;;;;;;;;;22.70;42.30;;;;;;1622487;73;808;-68
2022/02/21 01:47:23;;;;;;;;;;;22.90;42.50;;;;;;1620786;73;781;-67
2022/02/21 01:49:24;;;;;;;;;;;22.80;42.30;;;;;;1626144;73;1917;-67
2022/02/21 01:51:26;;;;;;;;;;;22.90;42.50;;;;;;1618848;71;827;-67
2022/02/21 01:53:28;;;;;;;;;;;22.90;42.60;;;;;;1624911;71;1177;-67
2022/02/21 01:55:30;;;;;;;;;;;22.80;42.40;;;;;;1626195;73;795;-67
2022/02/21 01:57:32;;;;;;;;;;;22.80;42.40;;;;;;1626129;71;763;-68
2022/02/21 01:59:34;;;;;;;;;;;22.90;42.60;;;;;;1625928;73;767;-68
2022/02/21 02:01:36;;;;;;;;;;;22.80;42.40;;;;;;1621809;73;760;-68
2022/02/21 02:03:37;;;;;;;;;;;22.90;42.60;;;;;;1620432;73;1123;-68
2022/02/21 02:05:39;;;;;;;;;;;22.90;42.60;;;;;;1621581;73;751;-69
2022/02/21 02:07:42;;;;;;;;;;;22.80;42.50;;;;;;1626161;73;704;-67
2022/02/21 02:09:43;;;;;;;;;;;22.90;42.60;;;;;;1624506;73;1941;-66
2022/02/21 02:11:45;;;;;;;;;;;22.80;42.60;;;;;;1626230;73;1127;-67
2022/02/21 02:13:51;;;;;;;;;;;22.80;42.50;;;;;;1625246;73;707;-67
2022/02/21 02:15:54;;;;;;;;;;;22.90;42.60;;;;;;1626148;73;731;-67
2022/02/21 02:17:56;;;;;;;;;;;22.80;42.50;;;;;;1626148;73;729;-67
2022/02/21 02:19:57;;;;;;;;;;;22.80;42.60;;;;;;1625308;73;771;-67
2022/02/21 02:22:12;;;;;;;;;;;22.80;42.60;;;;;;1622687;72;1139;-68
2022/02/21 02:24:14;;;;;;;;;;;22.80;42.60;;;;;;1625917;73;769;-67
2022/02/21 02:26:17;;;;;;;;;;;22.80;42.60;;;;;;1621325;73;771;-66
2022/02/21 02:28:19;;;;;;;;;;;22.80;42.60;;;;;;1619165;73;708;-67
2022/02/21 02:30:21;;;;;;;;;;;22.80;42.60;;;;;;1616551;73;1925;-66
2022/02/21 02:32:22;;;;;;;;;;;22.80;42.60;;;;;;1626624;72;1143;-67
2022/02/21 02:34:24;;;;;;;;;;;22.80;42.50;;;;;;1626428;73;788;-68
2022/02/21 02:36:27;;;;;;;;;;;22.80;42.50;;;;;;1626424;73;755;-67
2022/02/21 02:38:29;;;;;;;;;;;22.80;42.60;;;;;;1625062;73;723;-68
2022/02/21 02:40:33;;;;;;;;;;;22.80;42.60;;;;;;1625206;73;693;-67
2022/02/21 02:42:34;;;;;;;;;;;22.80;42.50;;;;;;1626342;72;1656;-67
2022/02/21 02:44:36;;;;;;;;;;;22.80;42.60;;;;;;1625587;71;735;-67
2022/02/21 02:46:38;;;;;;;;;;;22.80;42.60;;;;;;1607277;71;798;-67
2022/02/21 02:48:40;;;;;;;;;;;22.80;42.60;;;;;;1616452;71;744;-70
2022/02/21 02:50:42;;;;;;;;;;;22.80;42.60;;;;;;1620222;73;1949;-66
2022/02/21 02:52:44;;;;;;;;;;;22.80;42.60;;;;;;1623835;71;1146;-67
2022/02/21 02:54:46;;;;;;;;;;;22.80;42.60;;;;;;1602820;73;768;-68
2022/02/21 02:56:48;;;;;;;;;;;22.80;42.70;;;;;;1609497;73;793;-67
2022/02/21 02:58:50;;;;;;;;;;;22.80;42.60;;;;;;1607945;73;782;-67
2022/02/21 03:00:51;;;;;;;;;;;22.80;42.70;;;;;;1623301;73;696;-67
2022/02/21 03:02:53;;;;;;;;;;;22.80;42.70;;;;;;1627127;73;1201;-67
2022/02/21 03:04:55;;;;;;;;;;;22.80;42.70;;;;;;1625308;71;527;-69
2022/02/21 03:06:58;;;;;;;;;;;22.80;42.70;;;;;;1625577;71;766;-69
2022/02/21 03:09:00;;;;;;;;;;;22.80;42.70;;;;;;1624287;72;727;-66
2022/02/21 03:11:02;;;;;;;;;;;22.80;42.60;;;;;;1620685;72;1947;-67
2022/02/21 03:13:04;;;;;;;;;;;22.80;42.70;;;;;;1623033;72;1136;-67
2022/02/21 03:15:06;;;;;;;;;;;22.80;42.70;;;;;;1622193;72;775;-67
2022/02/21 03:17:08;;;;;;;;;;;22.80;42.70;;;;;;1625905;72;766;-68
2022/02/21 03:19:10;;;;;;;;;;;22.80;42.60;;;;;;1619807;72;783;-65
2022/02/21 03:21:12;;;;;;;;;;;22.80;42.70;;;;;;1624754;72;727;-67
2022/02/21 03:23:16;;;;;;;;;;;22.80;42.80;;;;;;1626255;72;1146;-68
2022/02/21 03:25:17;;;;;;;;;;;22.80;42.70;;;;;;1624970;73;1808;-68
2022/02/21 03:27:19;;;;;;;;;;;22.80;42.70;;;;;;1626344;73;718;-68
2022/02/21 03:29:21;;;;;;;;;;;22.70;42.70;;;;;;1625365;73;692;-67
2022/02/21 03:31:23;;;;;;;;;;;22.80;42.70;;;;;;1625243;73;1941;-69
2022/02/21 03:33:24;;;;;;;;;;;22.80;42.80;;;;;;1621560;73;1140;-67
2022/02/21 03:35:26;;;;;;;;;;;22.80;42.90;;;;;;1626128;73;740;-68
2022/02/21 03:37:28;;;;;;;;;;;22.80;42.80;;;;;;1625857;73;731;-68
2022/02/21 03:39:30;;;;;;;;;;;22.80;42.80;;;;;;1625704;73;774;-68
2022/02/21 03:41:34;;;;;;;;;;;22.80;42.80;;;;;;1626197;73;697;-68
2022/02/21 03:43:35;;;;;;;;;;;22.80;42.80;;;;;;1625991;72;1698;-69
2022/02/21 03:45:37;;;;;;;;;;;22.80;42.80;;;;;;1626462;73;814;-67
2022/02/21 03:47:39;;;;;;;;;;;22.80;42.80;;;;;;1625804;71;800;-70
2022/02/21 03:49:41;;;;;;;;;;;22.80;42.80;;;;;;1620441;73;1937;-67
2022/02/21 03:51:43;;;;;;;;;;;22.80;42.80;;;;;;1622699;73;766;-67
2022/02/21 03:53:45;;;;;;;;;;;22.80;42.80;;;;;;1623830;73;722;-67
2022/02/21 03:55:47;;;;;;;;;;;22.80;42.80;;;;;;1624429;73;731;-67
2022/02/21 03:57:49;;;;;;;;;;;22.80;42.80;;;;;;1612022;73;704;-67
2022/02/21 03:59:50;;;;;;;;;;;22.80;42.80;;;;;;1623030;73;746;-69
2022/02/21 04:01:52;;;;;;;;;;;22.70;42.80;;;;;;1616205;71;1166;-69
2022/02/21 04:03:54;;;;;;;;;;;22.70;42.80;;;;;;1617611;73;875;-65
2022/02/21 04:05:56;;;;;;;;;;;22.70;42.80;;;;;;1615604;71;745;-65
2022/02/21 04:07:58;;;;;;;;;;;22.70;42.80;;;;;;1615644;73;779;-66
2022/02/21 04:10:00;;;;;;;;;;;22.70;42.70;;;;;;1627369;73;1961;-66
2022/02/21 04:12:02;;;;;;;;;;;22.70;42.70;;;;;;1624976;73;1177;-66
2022/02/21 04:14:04;;;;;;;;;;;22.80;42.70;;;;;;1611385;71;751;-66
2022/02/21 04:16:06;;;;;;;;;;;22.70;42.60;;;;;;1625618;73;785;-65
2022/02/21 04:18:08;;;;;;;;;;;22.70;42.60;;;;;;1616906;73;690;-67
2022/02/21 04:20:10;;;;;;;;;;;22.70;42.60;;;;;;1624878;73;814;-70
2022/02/21 04:22:13;;;;;;;;;;;22.70;42.60;;;;;;1611016;71;1159;-66
2022/02/21 04:24:15;;;;;;;;;;;22.70;42.60;;;;;;1626680;73;959;-65
2022/02/21 04:26:17;;;;;;;;;;;22.70;42.60;;;;;;1612399;73;664;-66
2022/02/21 04:28:19;;;;;;;;;;;22.70;42.60;;;;;;1627858;71;775;-66
2022/02/21 04:30:21;;;;;;;;;;;22.80;42.60;;;;;;1618274;73;1972;-66
2022/02/21 04:32:23;;;;;;;;;;;22.70;42.60;;;;;;1623200;71;1171;-66
2022/02/21 04:34:25;;;;;;;;;;;22.80;42.60;;;;;;1609524;73;736;-67
2022/02/21 04:36:28;;;;;;;;;;;22.80;42.60;;;;;;1617331;73;730;-68
2022/02/21 04:38:30;;;;;;;;;;;22.70;42.60;;;;;;1626241;71;796;-68
2022/02/21 04:40:32;;;;;;;;;;;22.70;42.60;;;;;;1615841;73;730;-67
2022/02/21 04:42:34;;;;;;;;;;;22.70;42.60;;;;;;1625405;73;1169;-67
2022/02/21 04:44:36;;;;;;;;;;;22.70;42.60;;;;;;1625073;73;721;-66
2022/02/21 04:46:38;;;;;;;;;;;22.70;42.50;;;;;;1624649;71;812;-66
2022/02/21 04:48:40;;;;;;;;;;;22.70;42.50;;;;;;1626494;71;769;-66
2022/02/21 04:50:42;;;;;;;;;;;22.70;42.50;;;;;;1619021;71;1939;-67
2022/02/21 04:52:44;;;;;;;;;;;22.70;42.40;;;;;;1612519;73;1154;-69
2022/02/21 04:54:45;;;;;;;;;;;22.70;42.50;;;;;;1625284;73;745;-67
2022/02/21 04:56:47;;;;;;;;;;;22.70;42.40;;;;;;1625381;73;781;-68
2022/02/21 04:58:49;;;;;;;;;;;22.70;42.40;;;;;;1626404;71;796;-69
2022/02/21 05:00:51;;;;;;;;;;;22.70;42.40;;;;;;1624814;73;786;-69
2022/02/21 05:02:53;;;;;;;;;;;22.70;42.40;;;;;;1622718;71;1131;-68
2022/02/21 05:04:55;;;;;;;;;;;22.80;42.40;;;;;;1601837;73;933;-67
2022/02/21 05:06:57;;;;;;;;;;;22.70;42.40;;;;;;1623104;71;891;-70
2022/02/21 05:08:58;;;;;;;;;;;22.70;42.40;;;;;;1621172;73;775;-67
2022/02/21 05:11:00;;;;;;;;;;;22.70;42.40;;;;;;1624392;73;1959;-67
2022/02/21 05:13:02;;;;;;;;;;;22.70;42.30;;;;;;1626227;73;1141;-67
2022/02/21 05:15:05;;;;;;;;;;;22.70;42.40;;;;;;1624348;72;771;-66
2022/02/21 05:17:06;;;;;;;;;;;22.70;42.30;;;;;;1626480;72;732;-66
2022/02/21 05:19:08;;;;;;;;;;;22.70;42.30;;;;;;1621664;72;785;-67
2022/02/21 05:21:10;;;;;;;;;;;22.70;42.40;;;;;;1626470;72;796;-66
2022/02/21 05:23:12;;;;;;;;;;;22.80;42.40;;;;;;1615970;72;1144;-67
2022/02/21 05:25:14;;;;;;;;;;;22.80;42.30;;;;;;1626014;72;763;-67
2022/02/21 05:27:16;;;;;;;;;;;22.70;42.30;;;;;;1611655;71;720;-72
2022/02/21 05:29:18;;;;;;;;;;;22.70;42.30;;;;;;1625144;71;809;-68
2022/02/21 05:31:24;;;;;;;;;;;22.70;42.30;;;;;;1623368;72;1911;-69
2022/02/21 05:33:24;;;;;;;;;;;22.70;42.30;;;;;;1622795;73;1171;-66
2022/02/21 05:35:26;;;;;;;;;;;22.80;42.30;;;;;;1620408;73;796;-66
2022/02/21 05:37:28;;;;;;;;;;;22.70;42.30;;;;;;1625708;73;785;-66
2022/02/21 05:39:29;;;;;;;;;;;22.70;42.30;;;;;;1622045;73;787;-67
2022/02/21 05:41:31;;;;;;;;;;;22.70;42.30;;;;;;1617819;73;784;-68
2022/02/21 05:43:34;;;;;;;;;;;22.70;42.30;;;;;;1621810;73;1118;-72
2022/02/21 05:45:36;;;;;;;;;;;22.80;42.30;;;;;;1624792;72;813;-68
2022/02/21 05:47:37;;;;;;;;;;;22.70;42.30;;;;;;1626612;73;784;-67
2022/02/21 05:49:39;;;;;;;;;;;22.70;42.30;;;;;;1623610;72;710;-71
2022/02/21 05:51:41;;;;;;;;;;;22.70;42.30;;;;;;1625355;72;1945;-66
2022/02/21 05:53:46;;;;;;;;;;;22.70;42.30;;;;;;1621708;72;1131;-69
2022/02/21 05:55:47;;;;;;;;;;;22.70;42.30;;;;;;1623269;72;1593;-67
2022/02/21 05:57:48;;;;;;;;;;;22.80;42.30;;;;;;1624733;72;822;-67
2022/02/21 05:59:50;;;;;;;;;;;22.70;42.30;;;;;;1623577;72;754;-69
2022/02/21 06:01:52;;;;;;;;;;;22.80;42.30;;;;;;1613857;73;1164;-70
2022/02/21 06:03:54;;;;;;;;;;;22.80;42.30;;;;;;1625948;71;892;-70
2022/02/21 06:05:56;;;;;;;;;;;22.80;42.40;;;;;;1624944;71;736;-64
2022/02/21 06:07:58;;;;;;;;;;;22.80;42.60;;;;;;1576287;73;720;-67
2022/02/21 06:10:00;;;;;;;;;;;22.90;42.70;;;;;;1610821;71;793;-67
2022/02/21 06:12:01;;;;;;;;;;;23.00;42.60;;;;;;1621840;73;1940;-66
2022/02/21 06:14:03;;;;;;;;;;;22.90;42.40;;;;;;1608362;71;721;-67
2022/02/21 06:16:05;;;;;;;;;;;23.00;42.30;;;;;;1620676;73;710;-67
2022/02/21 06:18:07;;;;;;;;;;;23.00;42.30;;;;;;1619905;73;743;-69
2022/02/21 06:20:10;;;;;;;;;;;23.00;42.30;;;;;;1614203;71;730;-67
2022/02/21 06:22:11;;;;;;;;;;;23.00;42.10;;;;;;1611569;73;1173;-68
2022/02/21 06:24:13;;;;;;;;;;;23.00;42.10;;;;;;1614498;73;799;-66
2022/02/21 06:26:15;;;;;;;;;;;23.10;42.10;;;;;;1617078;73;729;-67
2022/02/21 06:28:17;;;;;;;;;;;23.10;42.00;;;;;;1619945;73;787;-66
2022/02/21 06:30:19;;;;;;;;;;;23.20;41.90;;;;;;1626038;73;696;-67
2022/02/21 06:32:21;;;;;;;;;;;23.20;41.80;;;;;;1621807;73;1936;-66
2022/02/21 06:34:23;;;;;;;;;;;23.30;41.70;;;;;;1613407;73;765;-69
2022/02/21 06:36:25;;;;;;;;;;;23.30;41.60;;;;;;1603518;73;777;-69
2022/02/21 06:38:26;;;;;;;;;;;23.30;41.50;;;;;;1610660;73;756;-69
2022/02/21 06:40:28;;;;;;;;;;;23.40;41.50;;;;;;1625417;73;730;-67
2022/02/21 06:42:30;;;;;;;;;;;23.30;41.40;;;;;;1613343;73;1092;-68
2022/02/21 06:44:32;;;;;;;;;;;23.40;41.30;;;;;;1612297;71;738;-69
2022/02/21 06:46:34;;;;;;;;;;;23.40;41.30;;;;;;1620634;73;791;-68
2022/02/21 06:48:36;;;;;;;;;;;23.50;41.50;;;;;;1625536;73;795;-70
2022/02/21 06:50:38;;;;;;;;;;;23.40;41.30;;;;;;1622778;73;672;-68
2022/02/21 06:52:40;;;;;;;;;;;23.50;41.40;;;;;;1607090;71;1922;-70
2022/02/21 06:54:41;;;;;;;;;;;23.50;41.30;;;;;;1629532;71;765;-70
2022/02/21 06:56:43;;;;;;;;;;;23.40;41.20;;;;;;1621318;73;775;-69
2022/02/21 06:58:45;;;;;;;;;;;23.40;41.10;;;;;;1621418;71;742;-69
2022/02/21 07:00:47;;;;;;;;;;;23.30;40.90;;;;;;1618624;73;718;-70
2022/02/21 07:02:51;;;;;;;;;;;23.30;40.70;;;;;;1627564;71;1145;-69
2022/02/21 07:04:53;;;;;;;;;;;23.20;40.40;;;;;;1627132;73;1654;-70
2022/02/21 07:06:54;;;;;;;;;;;23.10;40.30;;;;;;1622812;73;644;-69
2022/02/21 07:08:56;;;;;;;;;;;23.10;40.10;;;;;;1611249;73;770;-71
2022/02/21 07:10:58;;;;;;;;;;;23.00;39.90;;;;;;1611427;71;1944;-69
2022/02/21 07:13:00;;;;;;;;;;;23.00;39.70;;;;;;1621185;71;1118;-73
2022/02/21 07:15:02;;;;;;;;;;;23.10;39.90;;;;;;1616461;71;704;-70
2022/02/21 07:17:04;;;;;;;;;;;23.00;39.70;;;;;;1626513;73;730;-69
2022/02/21 07:19:06;;;;;;;;;;;23.00;39.40;;;;;;1611160;73;748;-71
2022/02/21 07:21:08;;;;;;;;;;;23.00;39.50;;;;;;1626843;73;731;-71
2022/02/21 07:23:10;;;;;;;;;;;22.90;39.40;;;;;;1618795;73;1149;-71
2022/02/21 07:25:12;;;;;;;;;;;22.90;39.30;;;;;;1619063;71;795;-69
2022/02/21 07:27:14;;;;;;;;;;;22.90;39.10;;;;;;1626410;73;795;-71
2022/02/21 07:29:16;;;;;;;;;;;22.80;38.90;;;;;;1625207;73;796;-72
2022/02/21 07:31:18;;;;;;;;;;;22.80;39.00;;;;;;1611350;73;1917;-72
2022/02/21 07:33:20;;;;;;;;;;;22.80;38.60;;;;;;1615845;71;1120;-72
2022/02/21 07:35:22;;;;;;;;;;;22.70;38.50;;;;;;1622025;73;779;-67
2022/02/21 07:37:24;;;;;;;;;;;22.70;38.50;;;;;;1625305;73;786;-71
2022/02/21 07:39:30;;;;;;;;;;;22.70;38.40;;;;;;1614874;72;677;-71
2022/02/21 07:41:29;;;;;;;;;;;22.70;37.20;;;;;;1609970;71;1681;-67
2022/02/21 07:43:31;;;;;;;;;;;22.60;37.90;;;;;;1623395;73;1106;-68
2022/02/21 07:45:33;;;;;;;;;;;22.60;38.40;;;;;;1601915;73;694;-68
2022/02/21 07:47:36;;;;;;;;;;;22.70;38.70;;;;;;1621002;72;783;-69
2022/02/21 07:49:38;;;;;;;;;;;22.80;38.70;;;;;;1619357;71;2001;-68
2022/02/21 07:51:40;;;;;;;;;;;22.90;38.70;;;;;;1606455;73;1913;-66
2022/02/21 07:53:42;;;;;;;;;;;23.00;38.70;;;;;;1621492;73;1119;-69
2022/02/21 07:55:44;;;;;;;;;;;23.00;38.70;;;;;;1616670;71;766;-68
2022/02/21 07:57:46;;;;;;;;;;;23.00;38.70;;;;;;1625963;71;797;-68
2022/02/21 07:59:48;;;;;;;;;;;23.00;38.70;;;;;;1626574;71;801;-68
2022/02/21 08:01:49;;;;;;;;;;;23.20;38.80;;;;;;1621742;73;1130;-67
2022/02/21 08:03:51;;;;;;;;;;;23.20;38.80;;;;;;1622212;73;749;-68
2022/02/21 08:05:55;;;;;;;;;;;23.20;38.90;;;;;;1608028;73;760;-68
2022/02/21 08:07:57;;;;;;;;;;;23.20;38.90;;;;;;1622584;71;825;-68
2022/02/21 08:09:59;;;;;;;;;;;23.20;39.00;;;;;;1621391;73;707;-68
2022/02/21 08:12:04;;;;;;;;;;;23.20;39.00;;;;;;1605732;73;1925;-69
2022/02/21 08:14:05;;;;;;;;;;;23.20;39.10;;;;;;1617199;73;1673;-67
2022/02/21 08:16:07;;;;;;;;;;;23.20;39.20;;;;;;1624831;71;732;-68
2022/02/21 08:18:09;;;;;;;;;;;23.20;39.20;;;;;;1623836;73;810;-69
2022/02/21 08:20:11;;;;;;;;;;;23.20;39.30;;;;;;1621712;72;780;-68
2022/02/21 08:22:13;;;;;;;;;;;23.30;39.40;;;;;;1625964;73;1150;-69
2022/02/21 08:24:15;;;;;;;;;;;23.20;39.40;;;;;;1622340;73;759;-68
2022/02/21 08:26:16;;;;;;;;;;;23.20;39.40;;;;;;1617379;73;911;-69
2022/02/21 08:28:18;;;;;;;;;;;23.30;39.60;;;;;;1619380;73;744;-68
2022/02/21 08:30:21;;;;;;;;;;;23.30;39.60;;;;;;1626043;73;729;-68
2022/02/21 08:32:23;;;;;;;;;;;23.30;39.60;;;;;;1625234;71;1932;-68
2022/02/21 08:34:25;;;;;;;;;;;23.30;39.60;;;;;;1624991;73;696;-67
2022/02/21 08:36:27;;;;;;;;;;;23.30;39.60;;;;;;1615573;71;737;-69
2022/02/21 08:38:28;;;;;;;;;;;23.40;39.60;;;;;;1615560;71;704;-68
2022/02/21 08:40:30;;;;;;;;;;;23.40;39.50;;;;;;1621650;72;722;-69
2022/02/21 08:42:32;;;;;;;;;;;23.40;39.50;;;;;;1626289;72;1137;-69
2022/02/21 08:44:34;;;;;;;;;;;23.50;39.50;;;;;;1623998;72;679;-67
2022/02/21 08:46:36;;;;;;;;;;;23.50;39.50;;;;;;1626045;72;650;-67
2022/02/21 08:48:38;;;;;;;;;;;23.50;39.40;;;;;;1616061;71;735;-68
2022/02/21 08:50:40;;;;;;;;;;;23.60;39.40;;;;;;1605293;73;783;-66
2022/02/21 08:52:42;;;;;;;;;;;23.60;39.40;;;;;;1603792;73;1939;-68
2022/02/21 08:54:44;;;;;;;;;;;23.60;39.40;;;;;;1626394;73;751;-68
2022/02/21 08:56:46;;;;;;;;;;;23.60;39.40;;;;;;1625079;73;706;-68
2022/02/21 08:58:48;;;;;;;;;;;23.60;39.50;;;;;;1610258;71;736;-67
2022/02/21 09:00:50;;;;;;;;;;;23.60;39.40;;;;;;1617220;73;746;-67
2022/02/21 09:02:52;;;;;;;;;;;23.60;39.50;;;;;;1627440;73;1130;-66
2022/02/21 09:04:54;;;;;;;;;;;23.60;39.50;;;;;;1614177;73;788;-69
2022/02/21 09:06:56;;;;;;;;;;;23.50;39.50;;;;;;1625139;73;809;-68
2022/02/21 09:08:58;;;;;;;;;;;23.60;39.50;;;;;;1626424;73;796;-67
2022/02/21 09:11:01;;;;;;;;;;;23.70;39.60;;;;;;1620846;73;779;-69
2022/02/21 09:13:03;;;;;;;;;;;23.60;39.40;;;;;;1626442;73;1900;-68
2022/02/21 09:15:06;;;;;;;;;;;23.60;39.40;;;;;;1626317;73;780;-68
2022/02/21 09:17:08;;;;;;;;;;;23.60;39.40;;;;;;1618449;73;618;-68
2022/02/21 09:19:10;;;;;;;;;;;23.60;39.40;;;;;;1608641;71;848;-69
2022/02/21 09:21:12;;;;;;;;;;;23.70;39.50;;;;;;1626143;73;805;-68
2022/02/21 09:23:14;;;;;;;;;;;23.70;39.50;;;;;;1617118;71;1183;-69
2022/02/21 09:25:16;;;;;;;;;;;23.70;39.50;;;;;;1621604;73;755;-68
2022/02/21 09:27:18;;;;;;;;;;;23.70;39.60;;;;;;1613249;71;746;-69
2022/02/21 09:29:21;;;;;;;;;;;23.70;39.50;;;;;;1625014;73;787;-69
2022/02/21 09:31:23;;;;;;;;;;;23.70;39.50;;;;;;1626262;73;699;-68
2022/02/21 09:33:25;;;;;;;;;;;23.70;39.50;;;;;;1626270;73;1935;-68
2022/02/21 09:35:26;;;;;;;;;;;23.70;39.50;;;;;;1625266;73;777;-68
2022/02/21 09:37:28;;;;;;;;;;;23.70;39.40;;;;;;1623147;73;708;-69
2022/02/21 09:39:30;;;;;;;;;;;23.80;39.40;;;;;;1622994;73;713;-67
2022/02/21 09:41:32;;;;;;;;;;;23.70;39.40;;;;;;1623300;73;789;-70
2022/02/21 09:43:34;;;;;;;;;;;23.80;39.40;;;;;;1622397;73;1106;-69
2022/02/21 09:45:36;;;;;;;;;;;23.80;39.40;;;;;;1622871;73;720;-71
2022/02/21 09:47:38;;;;;;;;;;;23.80;39.40;;;;;;1619803;73;666;-70
2022/02/21 09:49:39;;;;;;;;;;;23.70;39.40;;;;;;1621367;73;737;-70
2022/02/21 09:51:41;;;;;;;;;;;23.80;39.30;;;;;;1622092;73;680;-70
2022/02/21 09:53:43;;;;;;;;;;;23.80;39.40;;;;;;1620167;73;1965;-69
2022/02/21 09:55:45;;;;;;;;;;;23.80;39.40;;;;;;1625262;71;773;-70
2022/02/21 09:57:47;;;;;;;;;;;23.80;39.40;;;;;;1625205;73;766;-71
2022/02/21 09:59:49;;;;;;;;;;;23.80;39.40;;;;;;1624212;73;727;-68
2022/02/21 10:01:51;;;;;;;;;;;23.80;39.40;;;;;;1621695;71;1159;-69
2022/02/21 10:03:57;;;;;;;;;;;23.80;39.40;;;;;;1621644;73;753;-69
2022/02/21 10:05:56;;;;;;;;;;;23.80;39.40;;;;;;1625032;73;1590;-68
2022/02/21 10:08:00;;;;;;;;;;;23.80;39.40;;;;;;1621268;73;880;-69
2022/02/21 10:10:02;;;;;;;;;;;23.80;39.50;;;;;;1622419;73;764;-70
2022/02/21 10:12:04;;;;;;;;;;;23.80;39.50;;;;;;1619803;73;1945;-68
2022/02/21 10:14:07;;;;;;;;;;;23.90;39.50;;;;;;1618278;71;765;-68
2022/02/21 10:16:09;;;;;;;;;;;23.80;39.40;;;;;;1625662;73;849;-67
2022/02/21 10:18:18;;;;;;;;;;;23.90;39.50;;;;;;1625826;73;776;-69
2022/02/21 10:20:20;;;;;;;;;;;23.90;39.50;;;;;;1619448;73;726;-69
2022/02/21 10:22:23;;;;;;;;;;;23.90;39.50;;;;;;1626820;73;1182;-69
2022/02/21 10:24:26;;;;;;;;;;;23.90;39.50;;;;;;1622417;73;731;-69
2022/02/21 10:26:28;;;;;;;;;;;24.00;39.60;;;;;;1617028;73;745;-69
2022/02/21 10:28:30;;;;;;;;;;;24.00;39.50;;;;;;1585870;74;1153;-67
2022/02/21 10:30:32;;;;;;;;;;;23.90;39.50;;;;;;1621711;73;768;-68
2022/02/21 10:32:35;;;;;;;;;;;24.00;39.50;;;;;;1622091;73;1951;-67
2022/02/21 10:34:37;;;;;;;;;;;24.00;39.60;;;;;;1626041;73;753;-68
2022/02/21 10:36:40;;;;;;;;;;;24.00;39.50;;;;;;1602878;73;772;-68
2022/02/21 10:38:42;;;;;;;;;;;24.20;39.50;;;;;;1621844;73;784;-66
2022/02/21 10:40:45;;;;;;;;;;;24.10;39.40;;;;;;1626175;71;680;-68
2022/02/21 10:43:04;;;;;;;;;;;24.10;39.50;;;;;;1610945;73;1072;-70
2022/02/21 10:45:10;;;;;;;;;;;24.10;39.50;;;;;;1629910;73;749;-67
2022/02/21 10:47:15;;;;;;;;;;;24.10;39.50;;;;;;1626298;71;690;-68
2022/02/21 10:49:17;;;;;;;;;;;24.10;39.40;;;;;;1614442;73;722;-69
2022/02/21 10:51:19;;;;;;;;;;;24.10;39.40;;;;;;1625604;73;752;-68
2022/02/21 10:53:23;;;;;;;;;;;24.10;39.40;;;;;;1620881;73;1934;-69
2022/02/21 10:55:31;;;;;;;;;;;24.10;39.40;;;;;;1624965;73;1317;-68
2022/02/21 10:57:40;;;;;;;;;;;24.20;39.40;;;;;;1617754;71;740;-68
2022/02/21 10:59:42;;;;;;;;;;;24.10;39.40;;;;;;1622410;71;831;-68
2022/02/21 11:01:43;;;;;;;;;;;24.20;39.40;;;;;;1613574;73;763;-69
2022/02/21 11:03:45;;;;;;;;;;;24.20;39.40;;;;;;1611514;73;1178;-66
2022/02/21 11:05:47;;;;;;;;;;;24.20;39.40;;;;;;1611440;73;796;-69
2022/02/21 11:07:49;;;;;;;;;;;24.20;39.20;;;;;;1610715;71;761;-70
2022/02/21 11:09:51;;;;;;;;;;;24.20;39.20;;;;;;1602781;71;814;-69
2022/02/21 11:11:53;;;;;;;;;;;24.20;39.20;;;;;;1620815;71;1146;-68
2022/02/21 11:13:55;;;;;;;;;;;24.20;39.10;;;;;;1606177;73;1942;-68
2022/02/21 11:15:57;;;;;;;;;;;24.20;39.10;;;;;;1627243;73;819;-68
2022/02/21 11:17:59;;;;;;;;;;;24.20;39.10;;;;;;1611699;73;728;-69
2022/02/21 11:20:01;;;;;;;;;;;24.20;39.10;;;;;;1625418;73;728;-69
2022/02/21 11:22:03;;;;;;;;;;;24.20;39.00;;;;;;1620519;73;1170;-67
2022/02/21 11:24:05;;;;;;;;;;;24.20;38.90;;;;;;1613579;73;721;-67
2022/02/21 11:26:20;;;;;;;;;;;24.20;38.60;;;;;;1611488;71;714;-69
2022/02/21 11:28:25;;;;;;;;;;;24.20;38.50;;;;;;1622500;73;885;-69
2022/02/21 11:30:27;;;;;;;;;;;24.20;38.50;;;;;;1611536;71;697;-68
2022/02/21 11:32:29;;;;;;;;;;;24.20;38.60;;;;;;1614946;71;1937;-71
2022/02/21 11:34:33;;;;;;;;;;;24.20;38.60;;;;;;1620039;73;776;-70
2022/02/21 11:36:34;;;;;;;;;;;24.20;38.60;;;;;;1621829;71;1571;-70
2022/02/21 11:38:41;;;;;;;;;;;24.10;38.70;;;;;;1625218;71;725;-70
2022/02/21 11:40:52;;;;;;;;;;;24.20;38.60;;;;;;1609152;71;1684;-70
2022/02/21 11:42:54;;;;;;;;;;;24.20;38.60;;;;;;1613709;71;1798;-70
2022/02/21 11:45:01;;;;;;;;;;;24.20;38.70;;;;;;1610216;71;745;-69
2022/02/21 11:47:09;;;;;;;;;;;24.20;38.70;;;;;;1624349;71;1180;-69
2022/02/21 11:49:13;;;;;;;;;;;24.20;38.80;;;;;;1617098;71;812;-70
2022/02/21 11:51:28;;;;;;;;;;;24.20;38.80;;;;;;1612658;71;1728;-69
2022/02/21 11:53:30;;;;;;;;;;;24.20;38.80;;;;;;1615832;71;1960;-70
2022/02/21 11:55:39;;;;;;;;;;;24.20;38.90;;;;;;1620784;71;702;-70
2022/02/21 11:57:40;;;;;;;;;;;24.20;38.80;;;;;;1630050;71;1672;-68
2022/02/21 11:59:42;;;;;;;;;;;24.20;38.80;;;;;;1624672;71;694;-69
2022/02/21 12:01:48;;;;;;;;;;;24.20;38.80;;;;;;1621404;73;770;-70
2022/02/21 12:03:54;;;;;;;;;;;24.20;38.80;;;;;;1616328;71;771;-69
2022/02/21 12:06:00;;;;;;;;;;;24.20;38.80;;;;;;1606805;71;1911;-70
2022/02/21 12:08:21;;;;;;;;;;;24.20;38.80;;;;;;1617381;71;780;-69
2022/02/21 12:10:23;;;;;;;;;;;24.20;38.80;;;;;;1623183;71;745;-69